createdAt,value
2023-01-01T00:01:19.529Z,78.52
2023-01-01T00:03:52.768Z,78.29
2023-01-01T00:06:23.232Z,78.31
2023-01-01T00:09:16.739Z,78.35
2023-01-01T00:11:46.980Z,78.25
2023-01-01T00:14:17.162Z,78.36
2023-01-01T00:16:47.471Z,78.63
2023-01-01T00:19:17.763Z,78.93
2023-01-01T00:21:48.019Z,78.76
2023-01-01T00:24:20.827Z,78.76
2023-01-01T00:26:50.972Z,78.94
2023-01-01T00:29:21.193Z,78.53
2023-01-01T00:31:51.481Z,78.85
2023-01-01T00:34:21.698Z,78.67
2023-01-01T00:36:51.932Z,78.96
2023-01-01T00:39:27.064Z,78.92
2023-01-01T00:41:57.206Z,79.09
2023-01-01T00:44:27.402Z,79.14
2023-01-01T00:46:57.801Z,78.86
2023-01-01T00:49:28.685Z,79.09
2023-01-01T00:51:58.929Z,78.64
2023-01-01T00:54:31.849Z,78.60
2023-01-01T00:57:02.129Z,78.91
2023-01-01T00:59:32.235Z,78.76
2023-01-01T01:02:02.494Z,78.62
2023-01-01T01:04:33.130Z,79.10
2023-01-01T01:07:05.683Z,78.92
2023-01-01T01:09:38.622Z,78.78
2023-01-01T01:12:17.537Z,78.73
2023-01-01T01:14:49.429Z,78.88
2023-01-01T01:17:19.558Z,78.76
2023-01-01T01:19:49.743Z,79.03
2023-01-01T01:22:25.999Z,79.06
2023-01-01T01:25:01.449Z,78.71
2023-01-01T01:27:31.651Z,78.44
2023-01-01T01:30:02.079Z,78.51
2023-01-01T01:32:33.445Z,78.69
2023-01-01T01:35:03.660Z,78.57
2023-01-01T01:37:34.017Z,78.89
2023-01-01T01:40:07.932Z,78.89
2023-01-01T01:42:37.956Z,78.86
2023-01-01T01:45:15.275Z,78.83
2023-01-01T01:47:52.706Z,79.19
2023-01-01T01:50:28.892Z,78.79
2023-01-01T01:53:07.893Z,79.09
2023-01-01T01:55:44.000Z,79.29
2023-01-01T01:58:16.356Z,79.08
2023-01-01T02:00:46.971Z,79.49
2023-01-01T02:03:20.642Z,79.10
2023-01-01T02:05:53.158Z,79.40
2023-01-01T02:08:23.957Z,79.22
2023-01-01T02:10:56.777Z,79.25
2023-01-01T02:13:27.357Z,79.43
2023-01-01T02:16:07.158Z,80.61
2023-01-01T02:18:46.038Z,80.37
2023-01-01T02:21:19.724Z,80.33
2023-01-01T02:24:18.830Z,80.03
2023-01-01T02:27:01.462Z,79.92
2023-01-01T02:29:49.360Z,79.88
2023-01-01T02:32:24.018Z,80.12
2023-01-01T02:35:00.254Z,80.17
2023-01-01T02:37:32.559Z,80.18
2023-01-01T02:40:04.970Z,80.02
2023-01-01T02:42:36.276Z,80.15
2023-01-01T02:45:11.378Z,79.93
2023-01-01T02:47:41.718Z,80.27
2023-01-01T02:50:16.471Z,80.40
2023-01-01T02:53:02.875Z,80.14
2023-01-01T02:55:43.354Z,80.60
2023-01-01T02:58:32.739Z,80.23
2023-01-01T03:04:26.123Z,80.60
2023-01-01T03:07:05.376Z,80.45
2023-01-01T03:09:46.348Z,80.25
2023-01-01T03:12:39.805Z,80.62
2023-01-01T03:15:19.737Z,80.31
2023-01-01T03:17:54.272Z,80.81
2023-01-01T03:20:29.982Z,80.69
2023-01-01T03:23:06.370Z,80.51
2023-01-01T03:25:42.668Z,81.09
2023-01-01T03:28:17.424Z,80.92
2023-01-01T03:30:50.648Z,80.64
2023-01-01T03:33:25.992Z,80.53
2023-01-01T03:36:03.912Z,80.54
2023-01-01T03:38:39.190Z,80.74
2023-01-01T03:41:15.934Z,80.70
2023-01-01T03:43:53.154Z,80.78
2023-01-01T03:46:31.090Z,80.47
2023-01-01T03:49:04.243Z,80.75
2023-01-01T03:51:58.361Z,80.81
2023-01-01T03:54:41.983Z,80.77
2023-01-01T03:57:16.549Z,80.35
2023-01-01T03:59:55.380Z,80.69
2023-01-01T04:02:31.786Z,80.54
2023-01-01T04:05:05.088Z,80.37
2023-01-01T04:07:38.427Z,80.76
2023-01-01T04:10:19.890Z,80.83
2023-01-01T04:12:52.203Z,80.86
2023-01-01T04:15:24.328Z,80.54
2023-01-01T04:17:57.907Z,80.58
2023-01-01T04:20:28.560Z,80.69
2023-01-01T04:23:02.579Z,80.97
2023-01-01T04:25:35.259Z,81.13
2023-01-01T04:28:06.166Z,80.91
2023-01-01T04:33:05.324Z,80.92
2023-01-01T04:35:35.530Z,81.13
2023-01-01T04:38:09.355Z,81.31
2023-01-01T04:40:39.581Z,81.10
2023-01-01T04:43:09.727Z,82.03
2023-01-01T04:45:40.023Z,81.89
2023-01-01T04:48:10.544Z,81.71
2023-01-01T04:50:40.715Z,81.90
2023-01-01T04:53:13.450Z,82.52
2023-01-01T04:55:43.580Z,82.85
2023-01-01T04:58:13.801Z,82.72
2023-01-01T05:00:44.252Z,82.25
2023-01-01T05:03:16.519Z,81.93
2023-01-01T05:05:51.291Z,81.77
2023-01-01T05:08:24.619Z,81.87
2023-01-01T05:10:54.772Z,81.46
2023-01-01T05:13:25.011Z,81.43
2023-01-01T05:15:55.241Z,81.77
2023-01-01T05:18:25.555Z,81.37
2023-01-01T05:21:03.564Z,81.58
2023-01-01T05:23:39.312Z,81.48
2023-01-01T05:26:14.385Z,81.27
2023-01-01T05:28:44.943Z,81.64
2023-01-01T05:31:17.470Z,81.44
2023-01-01T05:33:47.895Z,81.35
2023-01-01T05:36:20.240Z,81.29
2023-01-01T05:38:53.352Z,81.43
2023-01-01T05:41:25.457Z,81.62
2023-01-01T05:43:56.130Z,81.51
2023-01-01T05:46:27.778Z,81.69
2023-01-01T05:48:57.959Z,81.47
2023-01-01T05:51:30.480Z,81.53
2023-01-01T05:54:03.290Z,81.42
2023-01-01T05:56:33.509Z,81.21
2023-01-01T05:59:03.697Z,81.57
2023-01-01T06:01:38.771Z,81.25
2023-01-01T06:04:13.691Z,81.11
2023-01-01T06:06:43.977Z,81.22
2023-01-01T06:09:16.979Z,81.40
2023-01-01T06:11:47.131Z,81.51
2023-01-01T06:14:17.253Z,81.31
2023-01-01T06:16:47.527Z,81.32
2023-01-01T06:19:17.721Z,81.66
2023-01-01T06:21:47.961Z,81.15
2023-01-01T06:24:20.739Z,81.21
2023-01-01T06:26:50.989Z,81.06
2023-01-01T06:29:21.229Z,81.08
2023-01-01T06:31:51.642Z,81.46
2023-01-01T06:34:21.827Z,80.99
2023-01-01T06:36:51.971Z,81.29
2023-01-01T06:39:24.874Z,80.98
2023-01-01T06:41:55.001Z,81.28
2023-01-01T06:44:25.158Z,80.95
2023-01-01T06:46:57.676Z,81.05
2023-01-01T06:49:28.718Z,81.13
2023-01-01T06:51:58.943Z,81.06
2023-01-01T06:54:31.825Z,81.40
2023-01-01T06:57:02.068Z,80.94
2023-01-01T06:59:32.367Z,81.22
2023-01-01T07:02:02.667Z,80.76
2023-01-01T07:04:32.927Z,80.80
2023-01-01T07:07:03.714Z,80.97
2023-01-01T07:09:36.736Z,81.07
2023-01-01T07:12:07.519Z,80.91
2023-01-01T07:14:40.143Z,81.11
2023-01-01T07:17:10.442Z,80.55
2023-01-01T07:19:40.691Z,80.75
2023-01-01T07:22:16.279Z,81.09
2023-01-01T07:24:50.907Z,80.99
2023-01-01T07:27:21.131Z,81.02
2023-01-01T07:29:51.403Z,80.95
2023-01-01T07:32:21.566Z,80.50
2023-01-01T07:34:52.499Z,80.69
2023-01-01T07:37:26.287Z,80.32
2023-01-01T07:39:58.986Z,80.38
2023-01-01T07:42:29.378Z,80.32
2023-01-01T07:44:59.621Z,79.94
2023-01-01T07:47:30.195Z,79.51
2023-01-01T07:50:00.458Z,79.47
2023-01-01T07:52:30.822Z,79.33
2023-01-01T07:55:06.191Z,78.97
2023-01-01T07:57:36.451Z,78.75
2023-01-01T08:00:08.171Z,79.13
2023-01-01T08:02:38.510Z,78.48
2023-01-01T08:05:09.738Z,77.99
2023-01-01T08:07:40.177Z,77.58
2023-01-01T08:10:13.577Z,77.33
2023-01-01T08:12:43.858Z,77.92
2023-01-01T08:15:15.187Z,77.44
2023-01-01T08:17:47.247Z,77.60
2023-01-01T08:20:18.106Z,78.09
2023-01-01T08:22:48.442Z,77.66
2023-01-01T08:25:21.484Z,77.78
2023-01-01T08:27:51.670Z,77.46
2023-01-01T08:30:21.869Z,76.88
2023-01-01T08:32:53.036Z,76.46
2023-01-01T08:35:23.300Z,74.87
2023-01-01T08:37:54.087Z,74.81
2023-01-01T08:40:28.204Z,74.24
2023-01-01T08:42:58.416Z,73.70
2023-01-01T08:45:28.637Z,73.04
2023-01-01T08:47:58.785Z,72.47
2023-01-01T08:50:29.102Z,71.52
2023-01-01T08:53:00.841Z,71.72
2023-01-01T08:55:34.207Z,71.46
2023-01-01T08:58:08.151Z,71.23
2023-01-01T09:00:38.520Z,70.94
2023-01-01T09:03:08.983Z,70.13
2023-01-01T09:05:39.363Z,70.12
2023-01-01T09:08:09.531Z,69.38
2023-01-01T09:10:43.625Z,69.35
2023-01-01T09:13:14.310Z,68.84
2023-01-01T09:15:45.663Z,68.14
2023-01-01T09:18:16.522Z,68.58
2023-01-01T09:20:46.914Z,68.07
2023-01-01T09:23:17.687Z,68.24
2023-01-01T09:25:51.076Z,67.60
2023-01-01T09:28:25.636Z,67.21
2023-01-01T09:30:56.259Z,66.91
2023-01-01T09:33:26.626Z,67.31
2023-01-01T09:35:56.880Z,66.58
2023-01-01T09:38:27.255Z,67.20
2023-01-01T09:41:15.369Z,66.74
2023-01-01T09:43:55.436Z,66.85
2023-01-01T09:46:31.723Z,67.23
2023-01-01T09:49:06.287Z,67.47
2023-01-01T09:51:44.758Z,67.61
2023-01-01T09:54:29.918Z,67.70
2023-01-01T09:57:05.182Z,67.71
2023-01-01T09:59:35.698Z,67.93
2023-01-01T10:02:21.109Z,68.05
2023-01-01T10:05:06.226Z,67.96
2023-01-01T10:07:46.721Z,67.95
2023-01-01T10:10:34.230Z,67.76
2023-01-01T10:13:13.265Z,68.39
2023-01-01T10:15:48.392Z,67.98
2023-01-01T10:18:24.522Z,68.29
2023-01-01T10:21:04.055Z,68.03
2023-01-01T10:23:42.704Z,67.87
2023-01-01T10:26:16.469Z,67.49
2023-01-01T10:28:56.954Z,67.38
2023-01-01T10:31:34.735Z,67.53
2023-01-01T10:34:15.357Z,67.72
2023-01-01T10:36:46.262Z,67.51
2023-01-01T10:39:18.956Z,67.25
2023-01-01T10:41:50.553Z,68.13
2023-01-01T10:44:33.139Z,67.85
2023-01-01T10:47:08.119Z,67.85
2023-01-01T10:49:57.441Z,67.54
2023-01-01T10:52:38.740Z,67.27
2023-01-01T10:55:10.281Z,67.36
2023-01-01T10:57:41.035Z,67.54
2023-01-01T11:00:25.317Z,67.78
2023-01-01T11:03:17.289Z,67.78
2023-01-01T11:06:07.811Z,67.21
2023-01-01T11:08:40.406Z,66.95
2023-01-01T11:11:24.490Z,67.20
2023-01-01T11:13:57.184Z,66.79
2023-01-01T11:16:31.783Z,66.41
2023-01-01T11:19:10.197Z,66.36
2023-01-01T11:21:40.463Z,66.83
2023-01-01T11:24:20.820Z,66.42
2023-01-01T11:26:54.794Z,66.16
2023-01-01T11:29:30.022Z,66.05
2023-01-01T11:32:05.804Z,66.33
2023-01-01T11:34:39.371Z,65.45
2023-01-01T11:37:14.039Z,65.92
2023-01-01T11:39:46.117Z,65.67
2023-01-01T11:42:21.575Z,65.98
2023-01-01T11:44:55.577Z,65.74
2023-01-01T11:47:32.340Z,65.26
2023-01-01T11:50:09.170Z,65.72
2023-01-01T11:52:41.936Z,65.24
2023-01-01T11:55:26.849Z,65.11
2023-01-01T11:58:06.217Z,64.73
2023-01-01T12:00:39.642Z,65.33
2023-01-01T12:03:33.137Z,65.07
2023-01-01T12:06:10.833Z,65.47
2023-01-01T12:08:45.171Z,65.05
2023-01-01T12:11:24.140Z,65.03
2023-01-01T12:14:00.116Z,64.98
2023-01-01T12:16:50.766Z,64.94
2023-01-01T12:19:28.003Z,65.11
2023-01-01T12:22:01.912Z,64.78
2023-01-01T12:24:35.138Z,65.49
2023-01-01T12:27:20.489Z,65.77
2023-01-01T12:30:13.722Z,66.62
2023-01-01T12:33:10.249Z,66.91
2023-01-01T12:35:52.401Z,66.96
2023-01-01T12:38:39.743Z,67.01
2023-01-01T12:41:15.741Z,67.03
2023-01-01T12:43:53.024Z,67.01
2023-01-01T12:46:45.722Z,67.38
2023-01-01T12:49:30.011Z,67.42
2023-01-01T12:52:17.222Z,67.80
2023-01-01T12:55:14.891Z,67.43
2023-01-01T12:57:54.468Z,68.90
2023-01-01T13:00:28.194Z,68.96
2023-01-01T13:03:02.621Z,69.45
2023-01-01T13:05:39.235Z,69.34
2023-01-01T13:08:12.372Z,69.10
2023-01-01T13:10:46.322Z,69.28
2023-01-01T13:13:17.599Z,69.27
2023-01-01T13:15:50.841Z,69.67
2023-01-01T13:18:27.480Z,69.99
2023-01-01T13:21:07.229Z,69.93
2023-01-01T13:23:54.560Z,70.48
2023-01-01T13:26:39.333Z,70.29
2023-01-01T13:29:48.450Z,70.60
2023-01-01T13:32:18.875Z,70.72
2023-01-01T13:35:19.058Z,70.95
2023-01-01T13:37:50.328Z,71.46
2023-01-01T13:40:53.256Z,71.48
2023-01-01T13:43:30.973Z,71.94
2023-01-01T13:46:12.721Z,72.23
2023-01-01T13:49:23.086Z,72.11
2023-01-01T13:52:07.551Z,72.17
2023-01-01T13:55:18.743Z,71.80
2023-01-01T13:58:17.821Z,72.02
2023-01-01T14:01:04.067Z,72.27
2023-01-01T14:03:41.593Z,72.16
2023-01-01T14:06:15.251Z,72.37
2023-01-01T14:08:45.495Z,72.65
2023-01-01T14:11:23.566Z,72.59
2023-01-01T14:13:56.390Z,72.97
2023-01-01T14:16:30.468Z,73.02
2023-01-01T14:19:01.583Z,73.39
2023-01-01T14:21:36.683Z,73.15
2023-01-01T14:24:10.213Z,73.42
2023-01-01T14:26:41.943Z,73.36
2023-01-01T14:29:23.608Z,73.53
2023-01-01T14:31:53.783Z,73.46
2023-01-01T14:34:28.646Z,73.87
2023-01-01T14:37:00.599Z,74.25
2023-01-01T14:39:32.416Z,74.49
2023-01-01T14:42:05.701Z,74.48
2023-01-01T14:44:41.966Z,75.07
2023-01-01T14:47:26.887Z,75.13
2023-01-01T14:50:03.535Z,75.12
2023-01-01T14:52:37.928Z,75.30
2023-01-01T14:55:19.487Z,75.44
2023-01-01T14:57:53.688Z,75.17
2023-01-01T15:00:31.968Z,75.71
2023-01-01T15:03:10.851Z,75.83
2023-01-01T15:05:41.742Z,76.11
2023-01-01T15:08:22.169Z,76.05
2023-01-01T15:10:54.058Z,76.35
2023-01-01T15:13:26.584Z,76.28
2023-01-01T15:16:17.240Z,76.30
2023-01-01T15:18:50.613Z,76.75
2023-01-01T15:21:28.975Z,76.40
2023-01-01T15:24:02.397Z,76.83
2023-01-01T15:26:35.044Z,77.18
2023-01-01T15:29:10.101Z,76.83
2023-01-01T15:31:45.322Z,77.03
2023-01-01T15:34:24.971Z,76.72
2023-01-01T15:36:58.137Z,76.99
2023-01-01T15:39:29.105Z,77.01
2023-01-01T15:41:59.615Z,77.25
2023-01-01T15:44:32.311Z,77.07
2023-01-01T15:47:16.802Z,76.86
2023-01-01T15:49:47.410Z,76.75
2023-01-01T15:52:25.471Z,77.11
2023-01-01T15:54:57.307Z,76.79
2023-01-01T15:57:27.700Z,77.44
2023-01-01T15:59:58.212Z,77.38
2023-01-01T16:02:36.600Z,77.21
2023-01-01T16:05:16.133Z,76.96
2023-01-01T16:07:47.510Z,76.91
2023-01-01T16:10:19.944Z,76.66
2023-01-01T16:12:50.223Z,77.04
2023-01-01T16:15:20.699Z,76.60
2023-01-01T16:17:54.409Z,76.88
2023-01-01T16:20:26.373Z,76.60
2023-01-01T16:22:56.700Z,77.16
2023-01-01T16:25:26.999Z,76.87
2023-01-01T16:27:57.212Z,76.76
2023-01-01T16:30:29.057Z,77.00
2023-01-01T16:33:02.193Z,77.17
2023-01-01T16:35:32.428Z,77.40
2023-01-01T16:38:05.359Z,76.88
2023-01-01T16:40:38.934Z,76.92
2023-01-01T16:43:12.549Z,76.82
2023-01-01T16:45:42.900Z,76.82
2023-01-01T16:48:15.718Z,77.14
2023-01-01T16:50:46.013Z,76.54
2023-01-01T16:53:16.481Z,77.40
2023-01-01T16:55:46.712Z,77.39
2023-01-01T16:58:47.847Z,76.81
2023-01-01T17:01:07.625Z,76.56
2023-01-01T17:03:41.080Z,76.35
2023-01-01T17:06:13.143Z,76.28
2023-01-01T17:08:43.482Z,76.86
2023-01-01T17:11:15.973Z,76.59
2023-01-01T17:13:47.015Z,76.79
2023-01-01T17:16:26.020Z,77.13
2023-01-01T17:19:17.900Z,76.66
2023-01-01T17:21:51.120Z,76.79
2023-01-01T17:24:23.369Z,76.78
2023-01-01T17:26:54.804Z,77.26
2023-01-01T17:29:25.463Z,77.12
2023-01-01T17:31:56.089Z,77.32
2023-01-01T17:34:29.214Z,77.11
2023-01-01T17:36:59.573Z,77.06
2023-01-01T17:39:29.985Z,76.96
2023-01-01T17:42:01.932Z,76.96
2023-01-01T17:44:34.873Z,76.79
2023-01-01T17:47:05.286Z,76.95
2023-01-01T17:49:38.426Z,76.42
2023-01-01T17:52:08.875Z,76.53
2023-01-01T17:54:39.353Z,76.74
2023-01-01T17:57:09.502Z,76.55
2023-01-01T17:59:39.855Z,76.74
2023-01-01T18:02:14.618Z,77.02
2023-01-01T18:04:48.182Z,76.35
2023-01-01T18:07:18.376Z,76.60
2023-01-01T18:09:49.632Z,76.10
2023-01-01T18:12:20.247Z,75.75
2023-01-01T18:14:50.633Z,76.41
2023-01-01T18:17:20.962Z,76.74
2023-01-01T18:19:54.024Z,76.01
2023-01-01T18:22:24.362Z,76.32
2023-01-01T18:24:54.542Z,76.03
2023-01-01T18:27:24.803Z,75.82
2023-01-01T18:29:55.375Z,76.18
2023-01-01T18:32:25.899Z,75.83
2023-01-01T18:35:12.558Z,75.94
2023-01-01T18:37:45.633Z,76.30
2023-01-01T18:40:18.658Z,76.37
2023-01-01T18:42:55.546Z,76.11
2023-01-01T18:45:27.274Z,76.42
2023-01-01T18:47:59.381Z,76.40
2023-01-01T18:50:35.952Z,76.56
2023-01-01T18:53:19.317Z,76.06
2023-01-01T18:55:50.868Z,76.43
2023-01-01T18:58:25.260Z,76.66
2023-01-01T19:00:56.826Z,76.65
2023-01-01T19:03:34.816Z,76.59
2023-01-01T19:06:28.004Z,76.48
2023-01-01T19:09:05.794Z,76.95
2023-01-01T19:11:38.109Z,77.19
2023-01-01T19:14:16.699Z,76.99
2023-01-01T19:16:47.985Z,76.99
2023-01-01T19:19:21.439Z,77.10
2023-01-01T19:22:00.237Z,76.80
2023-01-01T19:24:33.416Z,77.30
2023-01-01T19:27:08.094Z,76.76
2023-01-01T19:29:43.280Z,76.99
2023-01-01T19:32:13.765Z,77.31
2023-01-01T19:34:44.364Z,77.16
2023-01-01T19:37:17.657Z,77.01
2023-01-01T19:39:50.484Z,77.12
2023-01-01T19:42:20.748Z,77.35
2023-01-01T19:44:51.171Z,76.84
2023-01-01T19:47:21.659Z,77.36
2023-01-01T19:49:55.564Z,76.85
2023-01-01T19:52:28.724Z,76.96
2023-01-01T19:54:59.363Z,77.19
2023-01-01T19:57:29.629Z,76.90
2023-01-01T20:00:04.229Z,77.29
2023-01-01T20:02:45.952Z,76.98
2023-01-01T20:05:17.861Z,77.23
2023-01-01T20:07:51.034Z,77.28
2023-01-01T20:10:22.169Z,76.93
2023-01-01T20:12:52.642Z,76.97
2023-01-01T20:15:23.059Z,77.17
2023-01-01T20:17:53.479Z,77.07
2023-01-01T20:20:24.305Z,77.20
2023-01-01T20:22:57.147Z,76.90
2023-01-01T20:25:27.747Z,76.87
2023-01-01T20:28:10.900Z,77.22
2023-01-01T20:30:41.912Z,76.97
2023-01-01T20:33:13.681Z,77.12
2023-01-01T20:35:56.450Z,77.13
2023-01-01T20:38:29.276Z,77.15
2023-01-01T20:41:19.978Z,76.72
2023-01-01T20:43:50.998Z,77.08
2023-01-01T20:46:21.527Z,77.21
2023-01-01T20:48:52.079Z,77.05
2023-01-01T20:51:22.800Z,77.06
2023-01-01T20:53:59.354Z,77.44
2023-01-01T20:56:29.713Z,77.37
2023-01-01T20:59:12.394Z,76.93
2023-01-01T21:01:53.404Z,77.29
2023-01-01T21:04:24.029Z,76.90
2023-01-01T21:06:54.207Z,76.90
2023-01-01T21:09:27.263Z,77.19
2023-01-01T21:11:57.803Z,77.13
2023-01-01T21:14:28.389Z,77.23
2023-01-01T21:17:01.221Z,77.76
2023-01-01T21:19:32.053Z,77.30
2023-01-01T21:22:02.583Z,77.24
2023-01-01T21:24:40.397Z,77.40
2023-01-01T21:27:16.255Z,77.55
2023-01-01T21:29:50.688Z,77.63
2023-01-01T21:32:24.623Z,77.24
2023-01-01T21:34:56.514Z,77.52
2023-01-01T21:37:42.512Z,77.34
2023-01-01T21:40:47.743Z,77.81
2023-01-01T21:43:31.673Z,77.96
2023-01-01T21:46:16.083Z,78.21
2023-01-01T21:48:57.401Z,77.96
2023-01-01T21:51:29.938Z,78.20
2023-01-01T21:54:09.514Z,77.80
2023-01-01T21:56:43.985Z,78.16
2023-01-01T21:59:29.557Z,78.45
2023-01-01T22:02:21.444Z,78.62
2023-01-01T22:04:53.573Z,78.54
2023-01-01T22:10:21.498Z,78.97
2023-01-01T22:12:59.997Z,78.48
2023-01-01T22:15:33.109Z,78.74
2023-01-01T22:18:25.213Z,78.78
2023-01-01T22:20:56.452Z,78.44
2023-01-01T22:23:36.895Z,78.81
2023-01-01T22:26:15.238Z,78.83
2023-01-01T22:28:53.902Z,78.75
2023-01-01T22:31:30.441Z,79.00
2023-01-01T22:34:01.833Z,78.75
2023-01-01T22:36:36.910Z,78.83
2023-01-01T22:39:17.149Z,78.82
2023-01-01T22:41:48.006Z,79.16
2023-01-01T22:44:20.894Z,78.90
2023-01-01T22:46:51.575Z,79.22
2023-01-01T22:49:24.779Z,79.30
2023-01-01T22:51:58.493Z,79.00
2023-01-01T22:54:28.665Z,78.90
2023-01-01T22:56:59.114Z,78.52
2023-01-01T22:59:32.131Z,78.70
2023-01-01T23:02:03.639Z,78.83
2023-01-01T23:04:33.788Z,78.81
2023-01-01T23:07:06.500Z,78.76
2023-01-01T23:09:36.870Z,79.07
2023-01-01T23:12:07.374Z,79.18
2023-01-01T23:15:01.463Z,79.17
2023-01-01T23:17:31.692Z,79.05
2023-01-01T23:20:03.603Z,79.57
2023-01-01T23:22:39.967Z,79.67
2023-01-01T23:25:13.554Z,79.30
2023-01-01T23:27:43.971Z,79.11
2023-01-01T23:30:17.849Z,79.23
2023-01-01T23:32:48.287Z,79.54
2023-01-01T23:35:21.690Z,79.29
2023-01-01T23:37:51.844Z,79.25
2023-01-01T23:40:22.246Z,79.07
2023-01-01T23:42:52.568Z,78.99
2023-01-01T23:45:25.444Z,79.05
2023-01-01T23:47:55.970Z,79.11
2023-01-01T23:50:26.661Z,79.57
2023-01-01T23:52:56.914Z,79.52
2023-01-01T23:55:27.107Z,79.15
2023-01-01T23:57:57.470Z,79.49
